sensor_id;sensor_type;location;lat;lon;timestamp;pressure;altitude;pressure_sealevel;temperature;humidity
60258;BME280;46115;44.484;11.314;2022-12-16T00:03:27;99070.88;;;5.53;100.00
60258;BME280;46115;44.484;11.314;2022-12-16T00:07:29;99057.84;;;5.52;100.00
60258;BME280;46115;44.484;11.314;2022-12-16T00:11:35;99068.81;;;5.60;100.00
60258;BME280;46115;44.484;11.314;2022-12-16T00:15:37;99060.69;;;5.47;100.00
60258;BME280;46115;44.484;11.314;2022-12-16T00:19:39;99038.72;;;5.67;100.00
60258;BME280;46115;44.484;11.314;2022-12-16T00:23:42;99025.78;;;5.47;100.00
60258;BME280;46115;44.484;11.314;2022-12-16T00:27:46;99021.47;;;5.46;100.00
60258;BME280;46115;44.484;11.314;2022-12-16T00:31:48;99024.25;;;5.60;100.00
60258;BME280;46115;44.484;11.314;2022-12-16T00:35:52;99045.38;;;5.40;100.00
60258;BME280;46115;44.484;11.314;2022-12-16T00:39:54;99058.94;;;5.30;100.00
60258;BME280;46115;44.484;11.314;2022-12-16T00:43:58;99040.59;;;5.48;100.00
60258;BME280;46115;44.484;11.314;2022-12-16T00:48:00;99048.75;;;5.42;100.00
60258;BME280;46115;44.484;11.314;2022-12-16T00:52:03;99043.03;;;5.68;100.00
60258;BME280;46115;44.484;11.314;2022-12-16T00:56:07;99044.91;;;5.49;100.00
60258;BME280;46115;44.484;11.314;2022-12-16T01:00:13;99048.91;;;5.39;100.00
60258;BME280;46115;44.484;11.314;2022-12-16T01:04:16;99049.44;;;5.11;100.00
60258;BME280;46115;44.484;11.314;2022-12-16T01:08:18;99060.25;;;5.22;100.00
60258;BME280;46115;44.484;11.314;2022-12-16T01:12:20;99066.41;;;5.21;100.00
60258;BME280;46115;44.484;11.314;2022-12-16T01:16:25;99070.88;;;5.36;100.00
60258;BME280;46115;44.484;11.314;2022-12-16T01:20:27;99066.66;;;5.33;100.00
60258;BME280;46115;44.484;11.314;2022-12-16T01:24:30;99075.13;;;5.21;100.00
60258;BME280;46115;44.484;11.314;2022-12-16T01:28:32;99073.69;;;5.14;100.00
60258;BME280;46115;44.484;11.314;2022-12-16T01:32:35;99073.63;;;5.16;100.00
60258;BME280;46115;44.484;11.314;2022-12-16T01:36:38;99075.88;;;5.23;100.00
60258;BME280;46115;44.484;11.314;2022-12-16T01:40:40;99075.81;;;5.25;100.00
60258;BME280;46115;44.484;11.314;2022-12-16T01:44:44;99060.78;;;5.28;100.00
60258;BME280;46115;44.484;11.314;2022-12-16T01:48:50;99084.94;;;5.16;100.00
60258;BME280;46115;44.484;11.314;2022-12-16T01:52:56;99081.38;;;5.36;100.00
60258;BME280;46115;44.484;11.314;2022-12-16T01:57:03;99040.53;;;5.32;100.00
60258;BME280;46115;44.484;11.314;2022-12-16T02:01:07;99031.13;;;5.28;100.00
60258;BME280;46115;44.484;11.314;2022-12-16T02:05:13;99056.16;;;5.51;100.00
60258;BME280;46115;44.484;11.314;2022-12-16T02:09:22;99065.88;;;5.31;100.00
60258;BME280;46115;44.484;11.314;2022-12-16T02:13:32;99053.84;;;5.45;100.00
60258;BME280;46115;44.484;11.314;2022-12-16T02:17:42;99054.94;;;5.58;100.00
60258;BME280;46115;44.484;11.314;2022-12-16T02:21:51;99054.59;;;5.47;100.00
60258;BME280;46115;44.484;11.314;2022-12-16T02:30:46;99057.94;;;5.33;100.00
60258;BME280;46115;44.484;11.314;2022-12-16T02:34:57;99069.41;;;5.30;100.00
60258;BME280;46115;44.484;11.314;2022-12-16T02:39:06;99066.47;;;5.19;100.00
60258;BME280;46115;44.484;11.314;2022-12-16T02:43:16;99083.63;;;5.08;100.00
60258;BME280;46115;44.484;11.314;2022-12-16T02:47:24;99088.84;;;5.26;100.00
60258;BME280;46115;44.484;11.314;2022-12-16T02:51:26;99078.97;;;5.31;100.00
60258;BME280;46115;44.484;11.314;2022-12-16T02:55:34;99100.03;;;5.11;100.00
60258;BME280;46115;44.484;11.314;2022-12-16T02:59:47;99089.22;;;5.36;100.00
60258;BME280;46115;44.484;11.314;2022-12-16T03:04:00;99087.56;;;4.99;100.00
60258;BME280;46115;44.484;11.314;2022-12-16T03:08:06;99074.84;;;5.09;100.00
60258;BME280;46115;44.484;11.314;2022-12-16T03:12:12;99093.31;;;5.42;100.00
60258;BME280;46115;44.484;11.314;2022-12-16T03:16:18;99094.09;;;4.90;100.00
60258;BME280;46115;44.484;11.314;2022-12-16T03:20:26;99101.19;;;5.06;100.00
60258;BME280;46115;44.484;11.314;2022-12-16T03:24:29;99102.56;;;4.95;100.00
60258;BME280;46115;44.484;11.314;2022-12-16T03:28:39;99049.16;;;4.81;100.00
60258;BME280;46115;44.484;11.314;2022-12-16T03:32:49;99085.84;;;4.98;100.00
60258;BME280;46115;44.484;11.314;2022-12-16T03:37:00;99076.31;;;5.14;100.00
60258;BME280;46115;44.484;11.314;2022-12-16T03:41:04;99096.19;;;5.01;100.00
60258;BME280;46115;44.484;11.314;2022-12-16T03:45:12;99089.53;;;5.30;100.00
60258;BME280;46115;44.484;11.314;2022-12-16T03:49:16;99095.66;;;5.12;100.00
60258;BME280;46115;44.484;11.314;2022-12-16T03:53:20;99084.63;;;5.05;100.00
60258;BME280;46115;44.484;11.314;2022-12-16T03:57:24;99079.59;;;5.37;100.00
60258;BME280;46115;44.484;11.314;2022-12-16T04:01:26;99075.84;;;4.89;100.00
60258;BME280;46115;44.484;11.314;2022-12-16T04:05:28;99080.00;;;5.10;100.00
60258;BME280;46115;44.484;11.314;2022-12-16T04:09:32;99080.84;;;4.93;100.00
60258;BME280;46115;44.484;11.314;2022-12-16T04:13:34;99079.91;;;4.94;100.00
60258;BME280;46115;44.484;11.314;2022-12-16T04:17:54;99087.56;;;4.99;100.00
60258;BME280;46115;44.484;11.314;2022-12-16T04:22:18;99098.94;;;4.98;100.00
60258;BME280;46115;44.484;11.314;2022-12-16T04:26:40;99097.97;;;5.18;100.00
60258;BME280;46115;44.484;11.314;2022-12-16T04:30:57;99104.25;;;5.32;100.00
60258;BME280;46115;44.484;11.314;2022-12-16T04:34:59;99101.88;;;5.09;100.00
60258;BME280;46115;44.484;11.314;2022-12-16T04:39:15;99084.69;;;5.22;100.00
60258;BME280;46115;44.484;11.314;2022-12-16T04:43:36;99095.19;;;5.04;100.00
60258;BME280;46115;44.484;11.314;2022-12-16T04:47:56;99071.53;;;5.05;100.00
60258;BME280;46115;44.484;11.314;2022-12-16T04:52:16;99093.19;;;5.09;100.00
60258;BME280;46115;44.484;11.314;2022-12-16T04:56:36;99102.75;;;5.10;100.00
60258;BME280;46115;44.484;11.314;2022-12-16T05:00:57;99102.81;;;5.08;100.00
60258;BME280;46115;44.484;11.314;2022-12-16T05:05:18;99114.28;;;5.06;100.00
60258;BME280;46115;44.484;11.314;2022-12-16T05:09:37;99105.72;;;5.21;100.00
60258;BME280;46115;44.484;11.314;2022-12-16T05:13:57;99115.69;;;5.13;100.00
60258;BME280;46115;44.484;11.314;2022-12-16T05:18:18;99123.75;;;5.08;100.00
60258;BME280;46115;44.484;11.314;2022-12-16T05:22:39;99119.38;;;5.09;100.00
60258;BME280;46115;44.484;11.314;2022-12-16T05:26:58;99109.53;;;5.14;100.00
60258;BME280;46115;44.484;11.314;2022-12-16T05:31:18;99092.16;;;5.30;100.00
60258;BME280;46115;44.484;11.314;2022-12-16T05:35:40;99072.59;;;5.01;100.00
60258;BME280;46115;44.484;11.314;2022-12-16T05:39:59;99111.28;;;5.13;100.00
60258;BME280;46115;44.484;11.314;2022-12-16T05:44:19;99102.41;;;5.35;100.00
60258;BME280;46115;44.484;11.314;2022-12-16T05:48:39;99103.41;;;5.49;100.00
60258;BME280;46115;44.484;11.314;2022-12-16T05:53:00;99107.56;;;5.53;100.00
60258;BME280;46115;44.484;11.314;2022-12-16T05:57:20;99091.72;;;5.56;100.00
60258;BME280;46115;44.484;11.314;2022-12-16T06:01:40;99096.44;;;5.14;100.00
60258;BME280;46115;44.484;11.314;2022-12-16T06:06:00;99102.66;;;5.11;100.00
60258;BME280;46115;44.484;11.314;2022-12-16T06:10:23;99114.34;;;5.23;100.00
60258;BME280;46115;44.484;11.314;2022-12-16T06:14:43;99111.19;;;5.51;100.00
60258;BME280;46115;44.484;11.314;2022-12-16T06:18:59;99105.16;;;5.49;100.00
60258;BME280;46115;44.484;11.314;2022-12-16T06:23:19;99099.78;;;5.35;100.00
60258;BME280;46115;44.484;11.314;2022-12-16T06:27:40;99141.84;;;5.31;100.00
60258;BME280;46115;44.484;11.314;2022-12-16T06:32:00;99127.84;;;5.14;100.00
60258;BME280;46115;44.484;11.314;2022-12-16T06:36:23;99143.72;;;5.29;100.00
60258;BME280;46115;44.484;11.314;2022-12-16T06:40:42;99147.94;;;5.32;100.00
60258;BME280;46115;44.484;11.314;2022-12-16T06:45:05;99153.72;;;5.39;100.00
60258;BME280;46115;44.484;11.314;2022-12-16T06:49:25;99146.50;;;5.78;100.00
60258;BME280;46115;44.484;11.314;2022-12-16T06:53:45;99151.25;;;5.36;100.00
60258;BME280;46115;44.484;11.314;2022-12-16T06:58:05;99165.94;;;5.57;100.00
60258;BME280;46115;44.484;11.314;2022-12-16T07:02:26;99153.69;;;5.75;100.00
60258;BME280;46115;44.484;11.314;2022-12-16T07:06:46;99151.81;;;5.42;100.00
60258;BME280;46115;44.484;11.314;2022-12-16T07:11:06;99173.31;;;5.49;100.00
60258;BME280;46115;44.484;11.314;2022-12-16T07:15:26;99189.38;;;5.60;100.00
60258;BME280;46115;44.484;11.314;2022-12-16T07:19:47;99196.69;;;5.53;100.00
60258;BME280;46115;44.484;11.314;2022-12-16T07:24:07;99185.78;;;5.44;100.00
60258;BME280;46115;44.484;11.314;2022-12-16T07:28:27;99172.81;;;5.59;100.00
60258;BME280;46115;44.484;11.314;2022-12-16T07:32:48;99194.97;;;5.52;100.00
60258;BME280;46115;44.484;11.314;2022-12-16T07:37:09;99185.84;;;5.61;100.00
60258;BME280;46115;44.484;11.314;2022-12-16T07:41:29;99191.84;;;5.99;100.00
60258;BME280;46115;44.484;11.314;2022-12-16T07:45:49;99209.72;;;6.08;98.99
60258;BME280;46115;44.484;11.314;2022-12-16T07:50:09;99197.56;;;5.71;99.80
60258;BME280;46115;44.484;11.314;2022-12-16T07:54:31;99211.22;;;5.78;99.69
60258;BME280;46115;44.484;11.314;2022-12-16T07:58:51;99217.66;;;5.89;99.23
60258;BME280;46115;44.484;11.314;2022-12-16T08:03:11;99212.69;;;5.83;99.64
60258;BME280;46115;44.484;11.314;2022-12-16T08:07:31;99216.69;;;5.73;99.70
60258;BME280;46115;44.484;11.314;2022-12-16T08:11:52;99219.09;;;5.78;99.66
60258;BME280;46115;44.484;11.314;2022-12-16T08:16:12;99225.25;;;5.96;99.81
60258;BME280;46115;44.484;11.314;2022-12-16T08:20:33;99235.19;;;6.06;100.00
60258;BME280;46115;44.484;11.314;2022-12-16T08:24:52;99236.41;;;6.16;100.00
60258;BME280;46115;44.484;11.314;2022-12-16T08:29:14;99248.16;;;5.92;100.00
60258;BME280;46115;44.484;11.314;2022-12-16T08:33:34;99235.72;;;5.96;100.00
60258;BME280;46115;44.484;11.314;2022-12-16T08:37:54;99232.28;;;5.76;100.00
60258;BME280;46115;44.484;11.314;2022-12-16T08:42:14;99240.06;;;5.97;99.88
60258;BME280;46115;44.484;11.314;2022-12-16T08:46:35;99249.16;;;6.07;99.03
60258;BME280;46115;44.484;11.314;2022-12-16T08:50:57;99254.47;;;6.22;99.62
60258;BME280;46115;44.484;11.314;2022-12-16T08:55:19;99252.47;;;5.93;100.00
60258;BME280;46115;44.484;11.314;2022-12-16T08:59:44;99276.72;;;6.33;99.19
60258;BME280;46115;44.484;11.314;2022-12-16T09:04:06;99265.19;;;6.01;99.72
60258;BME280;46115;44.484;11.314;2022-12-16T09:08:26;99268.16;;;6.29;98.20
60258;BME280;46115;44.484;11.314;2022-12-16T09:12:45;99264.03;;;6.23;99.57
60258;BME280;46115;44.484;11.314;2022-12-16T09:17:05;99269.28;;;6.06;100.00
60258;BME280;46115;44.484;11.314;2022-12-16T09:21:27;99261.78;;;6.68;99.15
60258;BME280;46115;44.484;11.314;2022-12-16T09:25:47;99284.59;;;6.83;97.48
60258;BME280;46115;44.484;11.314;2022-12-16T09:30:08;99267.72;;;6.71;98.88
60258;BME280;46115;44.484;11.314;2022-12-16T09:34:28;99264.66;;;6.96;97.09
60258;BME280;46115;44.484;11.314;2022-12-16T09:38:49;99272.38;;;6.99;95.79
60258;BME280;46115;44.484;11.314;2022-12-16T09:43:25;99261.88;;;6.99;96.57
60258;BME280;46115;44.484;11.314;2022-12-16T09:47:54;99263.81;;;6.96;97.17
60258;BME280;46115;44.484;11.314;2022-12-16T09:52:20;99275.72;;;6.85;96.18
60258;BME280;46115;44.484;11.314;2022-12-16T09:56:43;99272.50;;;6.80;96.77
60258;BME280;46115;44.484;11.314;2022-12-16T10:01:04;99276.16;;;6.94;94.83
60258;BME280;46115;44.484;11.314;2022-12-16T10:05:29;99287.72;;;7.07;94.60
60258;BME280;46115;44.484;11.314;2022-12-16T10:09:59;99279.56;;;7.29;93.01
60258;BME280;46115;44.484;11.314;2022-12-16T10:14:25;99271.53;;;7.14;95.95
60258;BME280;46115;44.484;11.314;2022-12-16T10:18:57;99260.78;;;7.03;95.00
60258;BME280;46115;44.484;11.314;2022-12-16T10:23:23;99273.16;;;7.17;94.31
60258;BME280;46115;44.484;11.314;2022-12-16T10:27:45;99263.53;;;7.33;94.04
60258;BME280;46115;44.484;11.314;2022-12-16T10:32:14;99269.03;;;7.60;92.76
60258;BME280;46115;44.484;11.314;2022-12-16T10:36:37;99271.16;;;7.38;94.22
60258;BME280;46115;44.484;11.314;2022-12-16T10:40:59;99277.19;;;7.40;93.90
60258;BME280;46115;44.484;11.314;2022-12-16T10:45:23;99260.44;;;7.09;94.47
60258;BME280;46115;44.484;11.314;2022-12-16T10:49:45;99279.22;;;7.35;92.20
60258;BME280;46115;44.484;11.314;2022-12-16T10:54:21;99287.75;;;7.23;93.90
60258;BME280;46115;44.484;11.314;2022-12-16T10:58:46;99298.09;;;7.26;92.41
60258;BME280;46115;44.484;11.314;2022-12-16T11:03:18;99302.91;;;7.17;93.96
60258;BME280;46115;44.484;11.314;2022-12-16T11:07:52;99286.50;;;7.30;91.81
60258;BME280;46115;44.484;11.314;2022-12-16T11:12:25;99269.38;;;6.89;94.57
60258;BME280;46115;44.484;11.314;2022-12-16T11:48:55;99280.78;;;6.55;93.81
60258;BME280;46115;44.484;11.314;2022-12-16T11:53:28;99306.38;;;6.85;93.48
60258;BME280;46115;44.484;11.314;2022-12-16T11:57:56;99313.84;;;6.42;96.01
60258;BME280;46115;44.484;11.314;2022-12-16T12:02:20;99301.03;;;6.36;98.11
60258;BME280;46115;44.484;11.314;2022-12-16T12:07:06;99271.13;;;6.56;97.36
60258;BME280;46115;44.484;11.314;2022-12-16T12:11:30;99304.41;;;6.55;97.86
60258;BME280;46115;44.484;11.314;2022-12-16T12:15:54;99306.09;;;6.74;97.20
60258;BME280;46115;44.484;11.314;2022-12-16T12:20:30;99297.19;;;6.61;99.34
60258;BME280;46115;44.484;11.314;2022-12-16T12:25:00;99282.63;;;6.19;100.00
60258;BME280;46115;44.484;11.314;2022-12-16T12:29:31;99295.06;;;6.50;100.00
60258;BME280;46115;44.484;11.314;2022-12-16T12:34:01;99285.69;;;6.96;97.50
60258;BME280;46115;44.484;11.314;2022-12-16T12:38:29;99313.22;;;6.72;99.34
60258;BME280;46115;44.484;11.314;2022-12-16T12:42:55;99298.72;;;6.65;98.84
60258;BME280;46115;44.484;11.314;2022-12-16T12:47:15;99284.34;;;6.54;98.99
60258;BME280;46115;44.484;11.314;2022-12-16T12:51:41;99303.91;;;6.99;97.84
60258;BME280;46115;44.484;11.314;2022-12-16T12:56:12;99297.97;;;6.96;97.87
60258;BME280;46115;44.484;11.314;2022-12-16T13:00:45;99303.09;;;7.14;96.84
60258;BME280;46115;44.484;11.314;2022-12-16T13:05:11;99325.44;;;7.06;97.53
60258;BME280;46115;44.484;11.314;2022-12-16T13:09:41;99307.56;;;6.79;96.65
60258;BME280;46115;44.484;11.314;2022-12-16T13:14:01;99307.31;;;7.17;95.97
60258;BME280;46115;44.484;11.314;2022-12-16T13:18:27;99302.75;;;7.20;96.14
60258;BME280;46115;44.484;11.314;2022-12-16T13:22:47;99311.53;;;7.04;97.79
60258;BME280;46115;44.484;11.314;2022-12-16T13:27:11;99302.72;;;7.05;97.24
60258;BME280;46115;44.484;11.314;2022-12-16T13:31:32;99309.81;;;7.36;96.91
60258;BME280;46115;44.484;11.314;2022-12-16T13:36:02;99311.00;;;7.46;97.65
60258;BME280;46115;44.484;11.314;2022-12-16T13:40:22;99315.63;;;7.09;96.64
60258;BME280;46115;44.484;11.314;2022-12-16T13:44:58;99308.41;;;6.97;96.88
60258;BME280;46115;44.484;11.314;2022-12-16T13:49:43;99313.50;;;7.65;95.25
60258;BME280;46115;44.484;11.314;2022-12-16T13:54:06;99322.47;;;7.29;97.43
60258;BME280;46115;44.484;11.314;2022-12-16T13:58:30;99321.22;;;7.68;95.19
60258;BME280;46115;44.484;11.314;2022-12-16T14:02:53;99316.81;;;7.68;96.94
60258;BME280;46115;44.484;11.314;2022-12-16T14:07:13;99326.97;;;7.59;96.14
60258;BME280;46115;44.484;11.314;2022-12-16T14:11:39;99331.03;;;7.96;93.88
60258;BME280;46115;44.484;11.314;2022-12-16T14:16:03;99346.22;;;7.59;95.75
60258;BME280;46115;44.484;11.314;2022-12-16T14:20:26;99339.00;;;7.63;96.31
60258;BME280;46115;44.484;11.314;2022-12-16T14:24:47;99346.56;;;7.37;97.54
60258;BME280;46115;44.484;11.314;2022-12-16T14:29:13;99338.69;;;7.20;96.82
60258;BME280;46115;44.484;11.314;2022-12-16T14:33:34;99337.94;;;7.18;97.42
60258;BME280;46115;44.484;11.314;2022-12-16T14:37:53;99347.91;;;7.11;98.37
60258;BME280;46115;44.484;11.314;2022-12-16T14:42:15;99373.53;;;6.73;99.83
60258;BME280;46115;44.484;11.314;2022-12-16T14:46:38;99382.97;;;6.77;99.31
60258;BME280;46115;44.484;11.314;2022-12-16T14:55:33;99377.50;;;6.65;100.00
60258;BME280;46115;44.484;11.314;2022-12-16T15:00:12;99370.38;;;6.67;100.00
60258;BME280;46115;44.484;11.314;2022-12-16T15:04:34;99379.69;;;7.07;97.56
60258;BME280;46115;44.484;11.314;2022-12-16T15:08:57;99380.19;;;6.63;100.00
60258;BME280;46115;44.484;11.314;2022-12-16T15:13:19;99388.16;;;6.62;99.92
60258;BME280;46115;44.484;11.314;2022-12-16T15:17:48;99409.94;;;6.64;100.00
60258;BME280;46115;44.484;11.314;2022-12-16T15:22:14;99417.16;;;6.58;100.00
60258;BME280;46115;44.484;11.314;2022-12-16T15:26:34;99406.19;;;6.50;100.00
60258;BME280;46115;44.484;11.314;2022-12-16T15:30:54;99414.50;;;6.41;100.00
60258;BME280;46115;44.484;11.314;2022-12-16T15:35:23;99411.03;;;6.41;99.56
60258;BME280;46115;44.484;11.314;2022-12-16T15:39:44;99415.66;;;6.36;99.37
60258;BME280;46115;44.484;11.314;2022-12-16T15:44:04;99431.81;;;6.45;98.04
60258;BME280;46115;44.484;11.314;2022-12-16T15:48:25;99426.25;;;6.34;98.34
60258;BME280;46115;44.484;11.314;2022-12-16T15:52:45;99436.75;;;6.34;97.68
60258;BME280;46115;44.484;11.314;2022-12-16T23:06:08;99751.25;;;5.60;100.00
60258;BME280;46115;44.484;11.314;2022-12-16T23:10:28;99742.22;;;5.68;100.00
60258;BME280;46115;44.484;11.314;2022-12-16T23:14:49;99743.63;;;5.76;100.00
60258;BME280;46115;44.484;11.314;2022-12-16T23:19:12;99722.22;;;5.65;100.00
60258;BME280;46115;44.484;11.314;2022-12-16T23:23:33;99742.91;;;5.94;100.00
60258;BME280;46115;44.484;11.314;2022-12-16T23:27:53;99743.94;;;5.89;100.00
60258;BME280;46115;44.484;11.314;2022-12-16T23:32:13;99756.81;;;5.97;100.00
60258;BME280;46115;44.484;11.314;2022-12-16T23:36:33;99742.56;;;5.80;100.00
60258;BME280;46115;44.484;11.314;2022-12-16T23:40:58;99751.09;;;5.85;100.00
60258;BME280;46115;44.484;11.314;2022-12-16T23:45:18;99744.88;;;5.88;100.00
60258;BME280;46115;44.484;11.314;2022-12-16T23:49:37;99748.16;;;5.94;100.00
60258;BME280;46115;44.484;11.314;2022-12-16T23:53:57;99745.06;;;6.05;100.00
60258;BME280;46115;44.484;11.314;2022-12-16T23:58:19;99750.66;;;6.18;100.00
